GW5283 Weather Reports


Display with metric or nautical units.
time (UTC)temp
F
wind
direction
speed
MPH
gust
MPH
rain 1hr
in
rain 24hr
in
rain mn
in
humidity
%
barometer
mb
20260505112558 42 15 0.0 0.0 0.00 0.00 0.00 81 1030.5
20260505112056 42 16 0.0 0.0 0.00 0.00 0.00 82 1030.3
20260505111555 42 16 0.0 0.0 0.00 0.00 0.00 82 1030.3
20260505111051 42 16 0.0 0.0 0.00 0.00 0.00 82 1030.7
20260505110548 42 16 0.0 0.0 0.00 0.00 0.00 84 1030.7
20260505102020 41 31 0.0 0.0 0.00 0.00 0.00 91 1030.5
20260505101519 41 31 0.0 0.0 0.00 0.00 0.00 91 1030.3
20260505101015 41 32 0.0 0.0 0.00 0.00 0.00 91 1030.2
20260505100513 41 32 0.0 0.0 0.00 0.00 0.00 91 1030.5
20260505100009 41 32 0.0 0.0 0.00 0.00 0.00 90 1030.5
20260505095505 41 31 0.0 0.0 0.00 0.00 0.00 90 1030.3
20260505095001 41 31 0.0 0.0 0.00 0.00 0.00 89 1030.3
20260505094458 41 32 0.0 0.0 0.00 0.00 0.00 89 1030.2
20260505093955 41 32 0.0 0.0 0.00 0.00 0.00 89 1030.2
20260505093451 41 32 0.0 0.0 0.00 0.00 0.00 88 1030.0
20260505092949 41 32 0.0 0.0 0.00 0.00 0.00 88 1030.2
20260505092446 41 32 0.0 0.0 0.00 0.00 0.00 88 1030.0
20260505091944 42 32 0.0 0.0 0.00 0.00 0.00 87 1030.1
20260505091441 42 32 0.0 0.0 0.00 0.00 0.00 86 1030.2
20260505090939 42 32 0.0 0.0 0.00 0.00 0.00 86 1030.5
20260505090437 42 32 0.0 0.0 0.00 0.00 0.00 86 1030.2
20260505085934 43 14 0.0 1.0 0.00 0.00 0.00 85 1030.3
20260505085432 43 15 0.0 1.0 0.00 0.00 0.00 85 1030.7
20260505084930 43 42 0.0 0.0 0.00 0.00 0.00 86 1030.8
20260505084428 43 30 0.0 0.0 0.00 0.00 0.00 87 1030.8
20260505083925 43 29 0.0 0.0 0.00 0.00 0.00 88 1030.8
20260505083422 43 26 0.0 0.0 0.00 0.00 0.00 88 1031.0
20260505082918 43 35 0.0 0.0 0.00 0.00 0.00 89 1031.0
20260505082414 43 36 0.0 0.0 0.00 0.00 0.00 89 1031.0
20260505081912 43 36 0.0 0.0 0.00 0.00 0.00 89 1030.8
20260505081409 43 36 0.0 0.0 0.00 0.00 0.00 89 1031.1
20260505080905 44 35 0.0 0.0 0.00 0.00 0.00 88 1031.0
20260505080401 44 35 0.0 0.0 0.00 0.00 0.00 88 1030.8
20260505075857 44 41 0.0 0.0 0.00 0.00 0.00 88 1031.1
20260505075354 44 34 0.0 0.0 0.00 0.00 0.00 88 1031.0
20260505074851 44 34 0.0 0.0 0.00 0.00 0.00 88 1031.1
20260505074348 44 34 0.0 1.0 0.00 0.00 0.00 88 1031.2
20260505073845 44 34 0.0 0.0 0.00 0.00 0.00 88 1031.2
20260505073343 44 36 0.0 0.0 0.00 0.00 0.00 88 1031.2
20260505072840 44 44 0.0 0.0 0.00 0.00 0.00 88 1031.2
20260505072336 44 31 0.0 0.0 0.00 0.00 0.00 88 1031.5
20260505071832 44 28 0.0 0.0 0.00 0.00 0.00 88 1031.5
20260505071328 44 28 0.0 0.0 0.00 0.00 0.00 88 1031.2
20260505070827 44 64 1.0 1.0 0.00 0.00 0.00 88 1031.5
20260505070323 44 22 0.0 0.0 0.00 0.00 0.00 88 1031.3
20260505065818 44 42 0.0 0.0 0.00 0.00 0.00 87 1031.2
20260505065315 44 40 0.0 0.0 0.00 0.00 0.00 87 1031.2
20260505064812 44 43 0.0 0.0 0.00 0.00 0.00 87 1031.3
20260505064309 44 48 1.0 2.0 0.00 0.00 0.00 87 1031.1
20260505063808 44 30 0.0 1.0 0.00 0.00 0.00 87 1031.2
20260505063303 44 37 0.0 0.0 0.00 0.00 0.00 86 1031.3
20260505062800 44 22 1.0 1.0 0.00 0.00 0.00 86 1031.5
20260505062258 44 37 0.0 0.0 0.00 0.00 0.00 86 1031.2
20260505061754 44 40 0.0 0.0 0.00 0.00 0.00 85 1031.3
20260505061252 44 27 0.0 0.0 0.00 0.00 0.00 85 1031.3
20260505060750 45 48 0.0 1.0 0.00 0.00 0.00 85 1031.5
20260505060247 45 37 0.0 0.0 0.07 0.00 0.00 84 1031.7
20260505055741 45 45 0.0 1.0 0.07 0.02 0.02 82 1031.7
20260505055238 45 38 0.0 0.0 0.00 0.01 0.01 82 1032.0
20260505054736 45 39 0.0 0.0 0.00 0.01 0.01 79 1031.7
20260505054233 46 12 0.0 0.0 0.00 0.01 0.01 79 1031.8
20260505053732 46 30 0.0 1.0 0.00 0.01 0.01 77 1031.7
20260505053227 46 53 1.0 1.0 0.00 0.01 0.01 75 1031.7
20260505052725 46 36 0.0 0.0 0.00 0.01 0.01 74 1031.6
20260505052221 46 42 0.0 0.0 0.00 0.01 0.01 72 1031.7
20260505051719 46 39 0.0 0.0 0.00 0.01 0.01 72 1031.7
20260505051217 46 39 0.0 0.0 0.00 0.01 0.01 73 1031.8
20260505050715 46 39 0.0 0.0 0.00 0.01 0.01 71 1031.7
20260505050213 46 24 0.0 0.0 0.00 0.01 0.01 73 1031.8
20260505041648 46 22 0.0 0.0 0.00 0.01 0.01 73 1030.8
20260505041145 46 12 1.0 1.0 0.00 0.01 0.01 74 1030.6
20260505040643 46 14 0.0 0.0 0.00 0.01 0.01 74 1030.6
20260505040140 46 48 0.0 1.0 0.00 0.01 0.01 74 1030.6
20260505035636 46 29 0.0 0.0 0.00 0.01 0.01 73 1030.6
20260505035132 46 95 1.0 3.0 0.00 0.01 0.01 73 1030.6
20260505034629 46 55 1.0 1.0 0.00 0.01 0.01 72 1030.8
20260505034126 46 67 1.0 2.0 0.00 0.01 0.01 73 1030.6
20260505033622 46 28 0.0 0.0 0.00 0.01 0.01 75 1030.8
20260505033121 47 36 0.0 1.0 0.00 0.01 0.01 73 1030.8
20260505032619 47 41 0.0 0.0 0.00 0.01 0.01 72 1030.8
20260505032114 47 29 1.0 1.0 0.00 0.01 0.01 71 1030.6
20260505031612 47 350 1.0 2.0 0.00 0.01 0.01 70 1030.5
20260505031109 47 77 2.0 2.0 0.00 0.01 0.01 70 1030.2
20260505030606 47 46 0.0 0.0 0.00 0.01 0.01 72 1030.2
20260505025557 47 35 0.0 0.0 0.00 0.01 0.01 72 1030.6
20260505025056 47 42 0.0 0.0 0.00 0.01 0.01 72 1030.8
20260505024553 47 44 0.0 0.0 0.00 0.01 0.01 73 1030.6
20260505024050 47 38 0.0 0.0 0.00 0.01 0.01 73 1030.5
20260505023547 47 26 0.0 0.0 0.00 0.01 0.01 72 1030.5
20260505023045 47 24 0.0 0.0 0.00 0.01 0.01 72 1030.5
20260505022542 47 60 1.0 1.0 0.00 0.01 0.01 71 1030.7
20260505022039 47 39 1.0 1.0 0.00 0.01 0.01 71 1030.3
20260505021536 47 65 1.0 1.0 0.00 0.01 0.01 71 1030.5
20260505021032 47 72 1.0 2.0 0.05 0.01 0.01 72 1030.8
20260505020532 47 45 0.0 1.0 0.05 0.01 0.01 71 1030.8
20260505020030 47 41 2.0 3.0 0.05 0.01 0.01 72 1030.8
20260505015526 48 26 0.0 1.0 0.00 0.00 0.00 70 1030.6
20260505015023 49 33 1.0 2.0 0.00 0.00 0.00 68 1030.6
20260505014520 49 20 1.0 2.0 0.00 0.00 0.00 62 1030.5
20260505014018 49 17 0.0 1.0 0.00 0.00 0.00 64 1030.3
20260505013514 50 33 0.0 0.0 0.00 0.00 0.00 67 1030.3
20260505013012 50 29 0.0 0.0 0.00 0.00 0.00 62 1030.3
20260505012510 50 31 0.0 0.0 0.00 0.00 0.00 61 1030.3
20260505012006 51 55 0.0 1.0 0.00 0.00 0.00 59 1030.3
20260505011502 53 41 0.0 1.0 0.00 0.00 0.00 55 1030.7
20260505010959 53 26 0.0 1.0 0.00 0.00 0.00 52 1030.2
20260505010455 54 31 1.0 1.0 0.00 0.00 0.00 54 1030.0
20260505005951 54 63 3.0 3.0 0.00 0.00 0.00 47 1029.7
20260505005448 54 65 2.0 2.0 0.00 0.00 0.00 49 1029.6
20260505004946 56 44 3.0 4.0 0.00 0.00 0.00 46 1029.5
20260505004442 56 118 2.0 2.0 0.00 0.00 0.00 40 1028.8
20260505003939 56 28 3.0 4.0 0.00 0.00 0.00 39 1029.1
20260505003436 57 85 2.0 3.0 0.00 0.00 0.00 37 1028.7
20260505002932 57 62 2.0 3.0 0.00 0.00 0.00 37 1028.5
20260505002429 57 167 2.0 3.0 0.00 0.00 0.00 36 1028.6
20260505001927 58 54 2.0 4.0 0.00 0.00 0.00 36 1028.2
20260505001424 58 112 3.0 3.0 0.00 0.00 0.00 35 1028.1
20260505000921 59 104 0.0 1.0 0.00 0.00 0.00 35 1028.2
20260505000420 60 154 6.0 8.0 0.00 0.00 0.00 34 1027.7
20260504235916 60 113 3.0 4.0 0.00 0.00 0.00 32 1028.0
20260504235413 61 47 2.0 3.0 0.00 0.00 0.00 32 1028.1
20260504234909 62 320 4.0 7.0 0.00 0.00 0.00 31 1028.0
20260504234407 62 57 1.0 1.0 0.00 0.00 0.00 32 1027.8
20260504233903 62 139 2.0 3.0 0.00 0.00 0.00 32 1028.0
20260504233359 63 331 2.0 2.0 0.00 0.00 0.00 31 1028.1
20260504232856 63 305 1.0 1.0 0.00 0.00 0.00 31 1028.1
20260504232353 63 20 1.0 1.0 0.00 0.00 0.00 30 1028.5
20260504231849 63 18 0.0 0.0 0.00 0.00 0.00 31 1028.3
20260504231346 63 0 0.0 1.0 0.00 0.00 0.00 31 1028.1
20260504230842 63 29 0.0 0.0 0.00 0.00 0.00 35 1028.2
20260504230340 62 23 0.0 0.0 0.00 0.00 0.00 36 1028.0
20260504225839 62 18 0.0 1.0 0.00 0.00 0.00 34 1028.2
20260504225335 61 5 0.0 1.0 0.00 0.00 0.00 34 1028.0
20260504224833 61 5 3.0 3.0 0.00 0.00 0.00 33 1028.0
20260504224329 61 353 3.0 3.0 0.00 0.00 0.00 33 1028.3
20260504223826 61 17 0.0 1.0 0.00 0.00 0.00 34 1028.3
20260504223321 61 6 2.0 2.0 0.00 0.00 0.00 33 1028.3
20260504222818 62 3 1.0 2.0 0.00 0.00 0.00 33 1028.3
20260504222315 62 15 1.0 1.0 0.00 0.00 0.00 32 1028.3
20260504221814 61 4 1.0 1.0 0.00 0.00 0.00 33 1028.3
20260504221310 61 326 2.0 3.0 0.00 0.00 0.00 34 1028.2
20260504220807 61 359 3.0 3.0 0.00 0.00 0.00 33 1028.1
20260504220303 62 23 1.0 2.0 0.00 0.00 0.00 32 1028.2
20260504215801 62 2 1.0 2.0 0.00 0.00 0.00 28 1028.3
20260504215257 62 31 0.0 0.0 0.00 0.00 0.00 29 1028.0
20260504214753 62 99 1.0 1.0 0.00 0.00 0.00 28 1028.1
20260504214250 63 327 2.0 2.0 0.00 0.00 0.00 28 1028.1
20260504213747 64 99 3.0 4.0 0.00 0.00 0.00 27 1028.0
20260504213243 64 38 2.0 2.0 0.00 0.00 0.00 24 1027.8
20260504212740 64 101 2.0 3.0 0.00 0.00 0.00 24 1027.7
20260504212236 64 57 4.0 4.0 0.00 0.00 0.00 24 1027.7
20260504211734 65 32 1.0 1.0 0.00 0.00 0.00 24 1027.3
20260504211230 66 34 1.0 1.0 0.00 0.00 0.00 23 1027.5
20260504210728 67 50 2.0 4.0 0.00 0.00 0.00 24 1027.5
20260504210225 67 32 0.0 0.0 0.00 0.00 0.00 23 1027.3
20260504205722 67 28 0.0 0.0 0.00 0.00 0.00 22 1027.2
20260504205220 68 16 0.0 0.0 0.00 0.00 0.00 24 1027.3
20260504204717 68 28 0.0 1.0 0.00 0.00 0.00 22 1027.6
20260504204216 68 12 1.0 1.0 0.00 0.00 0.00 23 1027.5
20260504203715 68 61 1.0 2.0 0.00 0.00 0.00 20 1027.8
20260504203212 68 28 1.0 2.0 0.00 0.00 0.00 21 1028.0
20260504202711 68 18 0.0 0.0 0.00 0.00 0.00 22 1028.1
20260504202209 67 26 0.0 1.0 0.00 0.00 0.00 22 1028.0
20260504201706 66 19 0.0 0.0 0.00 0.00 0.00 23 1028.0
20260504201204 67 75 2.0 3.0 0.00 0.00 0.00 23 1027.8
20260504200701 67 3 1.0 1.0 0.00 0.00 0.00 23 1028.1
20260504200157 66 12 2.0 2.0 0.00 0.00 0.00 22 1028.1
20260504195653 66 337 0.0 0.0 0.00 0.00 0.00 23 1028.2
20260504195149 66 59 1.0 1.0 0.00 0.00 0.00 21 1028.3
20260504194646 66 340 3.0 4.0 0.00 0.00 0.00 22 1028.1
20260504194142 66 27 1.0 1.0 0.00 0.00 0.00 19 1028.3
20260504193639 67 61 1.0 1.0 0.00 0.00 0.00 20 1028.2
20260504193137 68 33 0.0 1.0 0.00 0.00 0.00 19 1028.3
20260504192635 69 63 2.0 2.0 0.00 0.00 0.00 19 1028.3
20260504192133 70 345 1.0 1.0 0.00 0.00 0.00 17 1028.3
20260504191631 71 13 0.0 0.0 0.00 0.00 0.00 17 1028.1
20260504191127 73 12 1.0 1.0 0.00 0.00 0.00 15 1028.5
20260504190623 71 91 2.0 2.0 0.00 0.00 0.00 17 1028.2
20260504190120 69 332 2.0 3.0 0.00 0.00 0.00 17 1028.5
20260504185616 68 4 1.0 1.0 0.00 0.00 0.00 19 1028.5
20260504185113 67 28 0.0 0.0 0.00 0.00 0.00 20 1028.6
20260504184608 69 87 1.0 1.0 0.00 0.00 0.00 18 1028.5
20260504184103 69 68 0.0 0.0 0.00 0.00 0.00 20 1028.7
20260504183601 69 5 0.0 0.0 0.00 0.00 0.00 18 1029.2
20260504183059 70 352 2.0 2.0 0.00 0.00 0.00 17 1029.2
20260504182555 70 9 0.0 1.0 0.00 0.00 0.00 17 1029.5
20260504182053 69 18 1.0 1.0 0.00 0.00 0.00 19 1029.5
20260504181550 70 356 1.0 2.0 0.00 0.00 0.00 19 1029.5
20260504181048 71 10 1.0 1.0 0.00 0.00 0.00 18 1029.6
20260504180547 70 349 1.0 2.0 0.00 0.00 0.00 18 1029.7
20260504180045 68 353 1.0 2.0 0.00 0.00 0.00 21 1029.5
20260504175542 66 351 1.0 1.0 0.00 0.00 0.00 21 1029.6
20260504175039 66 55 1.0 1.0 0.00 0.00 0.00 20 1029.7
20260504174537 68 17 0.0 0.0 0.00 0.00 0.00 19 1029.7
20260504174034 69 27 1.0 1.0 0.00 0.00 0.00 18 1029.8
20260504173530 70 1 1.0 2.0 0.00 0.00 0.00 19 1029.7
20260504173028 69 342 1.0 1.0 0.00 0.00 0.00 23 1029.8
20260504172524 68 4 2.0 2.0 0.00 0.00 0.00 22 1029.8
20260504172020 67 355 2.0 3.0 0.00 0.00 0.00 23 1030.0
20260504171517 68 13 0.0 0.0 0.00 0.00 0.00 21 1030.1
20260504171015 69 10 1.0 1.0 0.00 0.00 0.00 22 1030.2
20260504170510 69 29 0.0 1.0 0.00 0.00 0.00 24 1030.2
20260504160431 61 21 1.0 1.0 0.00 0.00 0.00 31 1030.7
20260504150854 59 68 1.0 2.0 0.00 0.00 0.00 32 1031.2
20260504150351 58 33 4.0 4.0 0.00 0.00 0.00 32 1031.1
20260504141321 57 358 1.0 2.0 0.00 0.00 0.00 32 1030.7
20260504140817 57 47 0.0 1.0 0.00 0.00 0.00 32 1030.8
20260504140313 56 47 0.0 1.0 0.00 0.00 0.00 32 1030.7
20260504130742 52 37 0.0 0.0 0.00 0.00 0.00 35 1030.7
20260504130238 51 40 0.0 0.0 0.00 0.00 0.00 36 1030.8
20260504120202 50 48 0.0 1.0 0.00 0.00 0.00 35 1030.7